KTMK

Tillamook Airport

Tillamook, Oregon, USA
METAR KTMK 231155Z AUTO 11003KT 10SM CLR M03/M04 A3050 RMK AO2
Observed Flight Rules
Feb-23 @ 11:55 UTC (28 minutes ago) Visual Flight Rules
Wind Visibility Clouds
110° at 3 knots 10 miles
  • Clear skies
Temperatures Readings
Current -3°C / 27°F
Dewpoint -4°C / 25°F
Humidity 93%
Altimeter 30.5" Hg
Pressure 1033 hPa
Elevation 11
METAR KTMK 231155Z AUTO 11003KT 10SM CLR M03/M04 A3050 RMK AO2
Observed Flight Rules
Feb-23 @ 11:55 UTC
(28 minutes ago)
VFR
Wind Visibility
110° at 3 knots 10 miles
Clouds
  • Clear skies
Temperature Dewpoint
-3°C / 27°F -4°C / 25°F
Humidity Altimeter Pressure
93% 30.5" Hg 1033 hPa